Time;durP1;ratioP1;P1;durP2;ratioP2;P2;SDS_P1;SDS_P2;PMS_P1;PMS_P2;Temp;Humidity;BMP_temperature;BMP_pressure;BME280_temperature;BME280_humidity;BME280_pressure;Samples;Min_cycle;Max_cycle;Signal;HPM_P1;HPM_P2
2021/07/03 00:00:07;;;;;;;3.50;1.92;;;;;;;21.50;63.27;99343.80;1656159;84;21059;-80
2021/07/03 00:02:34;;;;;;;3.90;1.77;;;;;;;21.46;63.45;99342.75;1664894;84;21041;-79
2021/07/03 00:05:01;;;;;;;4.60;1.57;;;;;;;21.45;63.31;99330.28;1670865;84;21013;-78
2021/07/03 00:07:27;;;;;;;6.05;1.55;;;;;;;21.50;63.41;99330.23;1663974;84;21058;-78
2021/07/03 00:09:54;;;;;;;5.30;1.30;;;;;;;21.49;63.49;99335.41;1635226;83;21035;-78
2021/07/03 00:12:21;;;;;;;;;;;;;;;21.43;63.65;99337.86;1667615;84;21136;-80
2021/07/03 00:14:49;;;;;;;3.08;1.02;;;;;;;21.40;63.78;99331.67;1657991;84;20194;-79
2021/07/03 00:17:19;;;;;;;1.70;0.98;;;;;;;21.39;63.87;99332.19;1669597;84;21060;-83
2021/07/03 00:19:46;;;;;;;3.22;1.22;;;;;;;21.48;63.65;99327.01;1669055;84;21131;-79
2021/07/03 00:22:12;;;;;;;;;;;;;;;21.52;63.61;99325.33;1666653;84;21081;-80
2021/07/03 00:24:38;;;;;;;4.08;1.10;;;;;;;21.53;63.68;99326.97;1663940;81;20127;-80
2021/07/03 00:27:06;;;;;;;;;;;;;;;21.43;64.10;99327.02;1700743;82;21085;-81
2021/07/03 00:29:33;;;;;;;1.85;0.95;;;;;;;21.35;64.43;99324.92;1693858;82;20096;-79
2021/07/03 00:31:58;;;;;;;;;;;;;;;21.34;64.72;99320.58;1712105;82;21570;-79
2021/07/03 00:34:26;;;;;;;6.37;1.20;;;;;;;21.36;64.60;99320.58;1689528;83;20433;-79
2021/07/03 00:36:52;;;;;;;5.58;1.60;;;;;;;21.29;64.98;99317.94;1695633;82;21077;-80
2021/07/03 00:39:18;;;;;;;3.58;1.30;;;;;;;21.26;65.27;99317.14;1702646;82;21546;-80
2021/07/03 00:41:45;;;;;;;3.05;0.62;;;;;;;21.22;65.52;99315.55;1709051;82;21141;-80
2021/07/03 00:44:12;;;;;;;7.20;1.30;;;;;;;21.25;65.42;99308.73;1695337;82;21101;-80
2021/07/03 00:46:41;;;;;;;2.15;0.90;;;;;;;21.32;65.30;99305.16;1706384;82;21049;-81
2021/07/03 00:49:07;;;;;;;3.17;1.10;;;;;;;21.33;65.36;99304.08;1702471;82;21022;-79
2021/07/03 00:51:33;;;;;;;5.97;1.12;;;;;;;21.32;64.96;99293.79;1710893;83;21053;-80
2021/07/03 00:53:59;;;;;;;;;;;;;;;21.30;64.91;99295.15;1712711;82;21086;-78
2021/07/03 00:56:27;;;;;;;4.80;1.72;;;;;;;21.31;64.69;99292.72;1706051;82;20399;-79
2021/07/03 00:58:53;;;;;;;3.67;1.77;;;;;;;21.32;64.64;99288.89;1710417;82;21046;-80
2021/07/03 01:01:21;;;;;;;5.78;1.87;;;;;;;21.34;64.48;99279.41;1709733;82;20970;-80
2021/07/03 01:03:47;;;;;;;4.00;1.60;;;;;;;21.32;64.53;99284.30;1702617;82;21094;-79
2021/07/03 01:06:13;;;;;;;4.53;1.25;;;;;;;21.27;64.60;99283.55;1693629;82;20997;-79
2021/07/03 01:08:39;;;;;;;4.58;1.20;;;;;;;21.24;64.80;99284.10;1703910;82;21008;-79
2021/07/03 01:11:07;;;;;;;3.00;1.62;;;;;;;21.24;64.94;99278.68;1705089;82;21010;-78
2021/07/03 01:13:36;;;;;;;5.33;1.90;;;;;;;21.28;64.88;99285.14;1700939;82;20998;-79
2021/07/03 01:16:05;;;;;;;2.40;1.22;;;;;;;21.27;64.71;99285.70;1708520;82;21060;-79
2021/07/03 01:18:32;;;;;;;4.45;1.10;;;;;;;21.24;64.73;99291.67;1700596;82;21001;-81
2021/07/03 01:21:00;;;;;;;4.25;1.22;;;;;;;21.24;64.69;99280.03;1698310;82;20986;-80
2021/07/03 01:23:26;;;;;;;3.20;1.15;;;;;;;21.27;64.74;99273.50;1704560;82;21057;-79
2021/07/03 01:25:58;;;;;;;2.15;1.20;;;;;;;21.34;64.52;99271.27;1703717;82;21038;-80
2021/07/03 01:28:27;;;;;;;3.92;0.95;;;;;;;21.34;64.44;99273.16;1708793;82;21068;-79
2021/07/03 01:30:56;;;;;;;1.95;1.02;;;;;;;21.26;64.76;99273.23;1701303;82;21081;-80
2021/07/03 01:33:24;;;;;;;2.22;1.17;;;;;;;21.14;65.25;99273.61;1699262;83;21216;-79
2021/07/03 01:35:51;;;;;;;3.83;1.12;;;;;;;21.09;65.52;99268.78;1707654;82;21022;-78
2021/07/03 01:38:25;;;;;;;4.40;1.52;;;;;;;21.07;65.59;99265.00;1708749;82;20998;-79
2021/07/03 01:40:53;;;;;;;5.03;1.75;;;;;;;21.07;65.75;99260.13;1709292;82;20990;-78
2021/07/03 01:43:27;;;;;;;4.05;1.40;;;;;;;21.04;65.86;99260.16;1708885;82;21586;-78
2021/07/03 01:45:56;;;;;;;5.40;0.70;;;;;;;21.04;65.88;99265.58;1707233;82;20987;-79
2021/07/03 01:48:27;;;;;;;1.50;1.25;;;;;;;21.06;66.08;99263.39;1672339;84;21623;-81
2021/07/03 01:50:56;;;;;;;8.13;1.42;;;;;;;21.13;65.84;99267.91;1656471;86;21604;-79
2021/07/03 01:53:26;;;;;;;3.77;1.50;;;;;;;21.15;65.69;99258.16;1656354;85;20985;-81
2021/07/03 01:55:54;;;;;;;4.80;2.10;;;;;;;21.13;65.85;99265.20;1653490;85;21016;-78
2021/07/03 01:58:24;;;;;;;3.90;2.30;;;;;;;21.09;66.19;99266.08;1686456;84;21007;-79
2021/07/03 02:00:55;;;;;;;2.87;1.50;;;;;;;21.07;66.43;99273.12;1676442;84;20999;-78
2021/07/03 02:03:23;;;;;;;3.58;2.33;;;;;;;21.12;66.45;99272.29;1668442;85;21028;-79
2021/07/03 02:05:52;;;;;;;3.22;1.95;;;;;;;21.14;66.48;99274.97;1685261;84;21097;-79
2021/07/03 02:08:21;;;;;;;5.42;1.98;;;;;;;21.11;66.62;99280.94;1689301;84;21053;-78
2021/07/03 02:10:51;;;;;;;3.90;2.35;;;;;;;21.07;66.71;99277.74;1685538;84;21467;-79
2021/07/03 02:13:18;;;;;;;4.20;2.30;;;;;;;21.08;66.80;99286.95;1692244;84;21038;-79
2021/07/03 02:15:44;;;;;;;;;;;;;;;21.15;66.73;99285.25;1686849;83;20994;-80
2021/07/03 02:18:14;;;;;;;4.00;2.40;;;;;;;21.17;66.72;99279.83;1682371;83;20124;-78
2021/07/03 02:20:41;;;;;;;5.17;1.92;;;;;;;21.11;67.07;99282.30;1667405;84;20998;-79
2021/07/03 02:23:09;;;;;;;3.98;1.72;;;;;;;21.11;67.02;99277.43;1679107;83;21076;-79
2021/07/03 02:25:38;;;;;;;5.45;2.98;;;;;;;21.11;67.08;99276.87;1678927;84;21046;-79
2021/07/03 02:28:06;;;;;;;3.12;1.87;;;;;;;21.12;67.35;99279.06;1674832;84;21070;-79
2021/07/03 02:30:33;;;;;;;2.00;1.67;;;;;;;21.14;67.26;99278.23;1678251;84;20972;-79
2021/07/03 02:33:00;;;;;;;3.80;1.82;;;;;;;21.12;67.38;99281.22;1696195;83;21064;-76
2021/07/03 02:35:28;;;;;;;4.37;1.50;;;;;;;;;;1675433;83;21127;-79
2021/07/03 02:37:55;;;;;;;4.22;1.77;;;;;;;21.06;67.65;99279.66;1690891;83;21145;-78
2021/07/03 02:40:23;;;;;;;6.55;2.10;;;;;;;21.03;67.90;99282.11;1700720;83;21042;-78
2021/07/03 02:42:52;;;;;;;3.55;1.52;;;;;;;21.07;67.77;99279.90;1684685;83;21147;-79
2021/07/03 02:45:19;;;;;;;5.00;1.87;;;;;;;21.11;67.85;99291.78;1697824;83;21592;-85
2021/07/03 02:47:47;;;;;;;5.85;2.75;;;;;;;21.09;67.87;99296.67;1689426;83;21133;-80
2021/07/03 02:50:18;;;;;;;2.12;1.92;;;;;;;21.04;68.28;99295.38;1690032;83;21583;-78
2021/07/03 02:52:46;;;;;;;4.28;1.72;;;;;;;21.03;68.41;99300.52;1692216;83;21570;-77
2021/07/03 02:55:13;;;;;;;4.70;2.15;;;;;;;21.07;68.45;99291.28;1716171;82;20987;-77
2021/07/03 02:57:40;;;;;;;3.47;1.62;;;;;;;21.10;68.44;99287.47;1717536;82;21074;-76
2021/07/03 03:00:11;;;;;;;3.40;2.00;;;;;;;21.13;68.39;99296.36;1676886;83;20995;-79
2021/07/03 03:02:38;;;;;;;6.75;2.47;;;;;;;21.16;68.58;99299.87;1684711;83;21040;-78
2021/07/03 03:05:08;;;;;;;6.00;2.95;;;;;;;21.12;68.64;99300.19;1708628;82;21603;-79
2021/07/03 03:07:39;;;;;;;2.27;2.00;;;;;;;21.12;68.72;99303.45;1687992;83;20982;-80
2021/07/03 03:10:09;;;;;;;7.83;2.10;;;;;;;21.14;68.52;99303.41;1706755;82;21534;-79
2021/07/03 03:12:39;;;;;;;3.33;2.00;;;;;;;21.21;68.37;99303.10;1707527;83;21113;-79
2021/07/03 03:15:09;;;;;;;3.80;2.25;;;;;;;21.22;68.46;99307.97;1717073;81;21133;-78
2021/07/03 03:17:38;;;;;;;8.08;2.75;;;;;;;21.18;68.54;99316.66;1703356;83;21070;-80
2021/07/03 03:20:08;;;;;;;6.80;3.45;;;;;;;21.18;68.29;99307.17;1722496;80;21087;-79
2021/07/03 03:22:36;;;;;;;7.05;3.52;;;;;;;21.18;68.12;99309.88;1709059;80;21042;-85
2021/07/03 03:25:05;;;;;;;5.40;3.50;;;;;;;21.20;68.00;99307.69;1672000;83;21009;-82
2021/07/03 03:27:33;;;;;;;4.33;2.80;;;;;;;21.11;68.47;99308.03;1689975;84;20987;-83
2021/07/03 03:30:01;;;;;;;8.05;3.62;;;;;;;20.94;68.93;99309.79;1688453;84;21100;-85
2021/07/03 03:32:27;;;;;;;9.35;3.77;;;;;;;20.80;69.62;99313.69;1661190;84;21023;-85
2021/07/03 03:34:54;;;;;;;9.40;3.10;;;;;;;20.80;69.61;99318.30;1699239;83;21030;-85
2021/07/03 03:37:20;;;;;;;7.85;3.83;;;;;;;20.86;69.47;99316.37;1703903;83;21050;-83
2021/07/03 03:39:47;;;;;;;8.48;3.77;;;;;;;20.88;69.42;99309.56;1698734;83;21006;-85
2021/07/03 03:42:13;;;;;;;6.90;4.15;;;;;;;20.89;69.56;99317.14;1688686;83;21131;-84
2021/07/03 03:44:40;;;;;;;4.80;3.00;;;;;;;20.87;69.61;99316.61;1695702;83;21142;-84
2021/07/03 03:47:08;;;;;;;4.53;3.90;;;;;;;20.90;69.74;99310.09;1678725;84;21043;-84
2021/07/03 03:49:35;;;;;;;4.55;3.87;;;;;;;20.98;69.65;99314.09;1690805;83;21444;-79
2021/07/03 03:52:03;;;;;;;6.58;3.83;;;;;;;21.06;69.41;99308.62;1685473;83;21103;-84
2021/07/03 03:54:30;;;;;;;6.80;4.35;;;;;;;21.09;69.31;99312.93;1697143;84;21626;-79
2021/07/03 03:59:42;;;;;;;4.30;3.10;;;;;;;21.14;69.42;99317.52;1692178;84;21543;-79
2021/07/03 04:02:10;;;;;;;8.65;3.67;;;;;;;21.19;69.36;99310.68;1676725;83;20997;-78
2021/07/03 04:04:36;;;;;;;4.47;4.05;;;;;;;21.28;69.29;99314.95;1696299;83;21080;-78
2021/07/03 04:07:04;;;;;;;5.35;4.20;;;;;;;21.26;69.09;99315.78;1679407;83;21632;-79
2021/07/03 04:09:32;;;;;;;5.03;3.83;;;;;;;21.20;69.34;99315.02;1691996;83;21473;-77
2021/07/03 04:11:58;;;;;;;;;;;;;;;21.14;69.55;99319.67;1683794;82;21115;-78
2021/07/03 04:14:23;;;;;;;8.83;4.28;;;;;;;21.15;69.62;99321.30;1689018;84;20112;-80
2021/07/03 04:16:51;;;;;;;6.78;4.72;;;;;;;21.16;69.63;99320.20;1694228;84;21070;-80
2021/07/03 04:19:17;;;;;;;;;;;;;;;21.20;69.58;99315.82;1699797;82;21090;-79
2021/07/03 04:21:43;;;;;;;5.93;3.83;;;;;;;21.26;69.72;99307.66;1704266;84;20153;-79
2021/07/03 04:24:09;;;;;;;;;;;;;;;21.29;69.62;99313.88;1671889;84;21006;-79
2021/07/03 04:26:35;;;;;;;8.20;4.60;;;;;;;21.42;69.30;99310.50;1676059;83;20394;-78
2021/07/03 04:29:02;;;;;;;8.63;4.55;;;;;;;21.63;68.85;99310.34;1685562;83;21074;-78
2021/07/03 04:31:28;;;;;;;6.35;5.12;;;;;;;21.89;68.33;99309.52;1680136;83;21037;-77
2021/07/03 04:33:55;;;;;;;7.00;5.12;;;;;;;22.23;67.51;99300.44;1688018;83;21022;-79
2021/07/03 04:36:21;;;;;;;8.83;5.47;;;;;;;22.62;66.49;99306.17;1698240;83;21011;-78
2021/07/03 04:38:48;;;;;;;13.65;5.35;;;;;;;23.21;65.10;99302.61;1692372;83;21007;-80
2021/07/03 04:41:14;;;;;;;8.80;5.45;;;;;;;23.92;62.63;99298.34;1696018;84;21146;-80
2021/07/03 04:43:40;;;;;;;4.87;4.58;;;;;;;24.60;60.04;99290.69;1691345;83;21031;-81
2021/07/03 04:46:08;;;;;;;7.45;6.33;;;;;;;25.10;58.21;99291.70;1697471;83;21630;-79
2021/07/03 04:48:36;;;;;;;9.30;7.17;;;;;;;25.59;56.54;99295.38;1695068;83;21086;-83
2021/07/03 04:51:02;;;;;;;15.53;7.33;;;;;;;25.76;55.82;99294.64;1681409;83;21049;-78
2021/07/03 04:53:29;;;;;;;8.83;7.72;;;;;;;25.51;55.86;99299.67;1697411;83;21090;-78
2021/07/03 04:55:55;;;;;;;9.10;7.65;;;;;;;24.86;57.34;99306.42;1698410;83;21075;-80
2021/07/03 04:58:21;;;;;;;10.40;8.03;;;;;;;24.22;59.41;99310.00;1696664;83;21003;-78
2021/07/03 05:00:47;;;;;;;14.83;7.80;;;;;;;23.84;60.59;99309.38;1693000;82;20994;-81
2021/07/03 05:03:14;;;;;;;10.25;8.68;;;;;;;23.56;61.68;99308.52;1696606;83;21043;-79
2021/07/03 05:05:40;;;;;;;9.15;6.83;;;;;;;23.37;62.15;99309.94;1698015;83;21097;-79
2021/07/03 05:08:08;;;;;;;12.50;8.25;;;;;;;23.26;62.90;99307.94;1693109;83;21054;-82
2021/07/03 05:10:35;;;;;;;11.48;8.18;;;;;;;23.28;62.92;99309.27;1706455;83;21073;-82
2021/07/03 05:13:01;;;;;;;18.40;7.62;;;;;;;23.16;63.13;99310.27;1698961;83;22291;-82
2021/07/03 05:15:29;;;;;;;9.55;8.70;;;;;;;23.03;63.76;99306.40;1712350;83;21589;-79
2021/07/03 05:17:56;;;;;;;12.70;10.55;;;;;;;22.96;64.30;99311.92;1704653;82;21055;-77
2021/07/03 05:20:24;;;;;;;11.57;9.90;;;;;;;22.78;64.54;99306.78;1724378;78;20972;-78
2021/07/03 05:22:50;;;;;;;14.45;11.90;;;;;;;22.62;65.01;99312.97;1719788;83;21006;-82
2021/07/03 05:25:16;;;;;;;12.63;9.88;;;;;;;22.49;65.34;99302.28;1716780;82;21026;-80
2021/07/03 05:27:42;;;;;;;17.55;11.70;;;;;;;22.42;65.66;99303.21;1715923;83;21037;-77
2021/07/03 05:30:08;;;;;;;;;;;;;;;22.40;65.84;99305.41;1726276;82;21037;-78
2021/07/03 05:32:35;;;;;;;17.37;11.35;;;;;;;22.42;65.97;99302.66;1723707;82;20129;-77
2021/07/03 05:35:01;;;;;;;16.82;12.50;;;;;;;22.42;66.22;99301.85;1721088;81;21162;-78
2021/07/03 05:37:28;;;;;;;10.70;9.60;;;;;;;22.57;65.92;99303.00;1714168;83;21019;-80
2021/07/03 05:42:01;;;;;;;15.32;12.28;;;;;;;23.08;64.52;99295.45;1775117;79;22974;-80
2021/07/03 05:44:27;;;;;;;13.80;12.43;;;;;;;23.22;64.09;99291.97;1724851;80;21091;-82
2021/07/03 05:46:53;;;;;;;13.20;12.03;;;;;;;23.52;63.51;99295.50;1654519;85;21065;-81
2021/07/03 05:49:19;;;;;;;15.43;12.47;;;;;;;24.00;61.47;99292.22;1655356;85;21110;-79
2021/07/03 05:51:46;;;;;;;15.60;11.88;;;;;;;24.34;60.56;99294.49;1655364;85;21045;-80
2021/07/03 05:54:13;;;;;;;14.00;12.58;;;;;;;24.75;58.76;99302.33;1629251;85;21607;-80
2021/07/03 05:56:40;;;;;;;13.83;11.88;;;;;;;24.89;58.59;99299.56;1654652;84;21045;-82
2021/07/03 05:59:06;;;;;;;17.40;12.82;;;;;;;25.22;58.15;99298.20;1654027;85;21029;-83
2021/07/03 06:01:32;;;;;;;16.15;12.18;;;;;;;25.61;57.18;99296.66;1608331;87;21120;-83
2021/07/03 06:03:58;;;;;;;11.68;10.55;;;;;;;26.07;56.02;99296.00;1642555;86;21100;-83
2021/07/03 06:06:26;;;;;;;11.75;10.28;;;;;;;26.59;54.12;99303.47;1645873;87;21619;-81
2021/07/03 06:08:54;;;;;;;10.55;9.50;;;;;;;26.98;53.76;99303.89;1648064;87;21038;-82
2021/07/03 06:11:20;;;;;;;15.15;11.12;;;;;;;27.31;51.84;99309.42;1651003;85;21133;-81
2021/07/03 06:13:46;;;;;;;11.93;10.78;;;;;;;27.49;50.78;99302.78;1690836;84;21110;-81
2021/07/03 06:16:12;;;;;;;10.88;9.83;;;;;;;27.44;51.24;99305.69;1675471;83;21071;-80
2021/07/03 06:18:40;;;;;;;13.88;12.23;;;;;;;27.43;51.68;99298.63;1675252;84;21434;-81
2021/07/03 06:21:06;;;;;;;12.25;9.70;;;;;;;27.62;50.78;99306.45;1687209;84;21054;-83
2021/07/03 06:23:34;;;;;;;9.60;8.80;;;;;;;27.81;51.05;99292.94;1681633;84;21078;-86
2021/07/03 06:26:00;;;;;;;10.08;8.75;;;;;;;27.96;50.29;99292.41;1684068;84;21591;-82
2021/07/03 06:28:27;;;;;;;9.03;8.20;;;;;;;28.18;49.63;99291.33;1677917;84;21578;-82
2021/07/03 06:30:55;;;;;;;10.50;8.18;;;;;;;28.28;48.83;99292.87;1664798;86;21561;-83
2021/07/03 06:33:21;;;;;;;8.23;7.53;;;;;;;28.30;49.44;99290.59;1638611;86;21086;-82
2021/07/03 06:35:47;;;;;;;10.20;9.25;;;;;;;28.53;49.14;99299.33;1620056;87;21055;-82
2021/07/03 06:38:13;;;;;;;10.45;9.48;;;;;;;28.70;47.53;99305.25;1616033;87;21160;-80
2021/07/03 06:40:39;;;;;;;10.08;9.13;;;;;;;28.38;47.83;99299.89;1634431;86;21033;-82
2021/07/03 06:43:05;;;;;;;8.35;7.75;;;;;;;27.87;49.03;99298.45;1610499;89;21122;-81
2021/07/03 06:45:35;;;;;;;8.53;7.92;;;;;;;27.63;49.45;99295.72;1643905;85;21085;-81
2021/07/03 06:48:01;;;;;;;11.10;8.18;;;;;;;27.57;50.14;99301.94;1658548;85;21015;-82
2021/07/03 06:50:30;;;;;;;8.50;7.95;;;;;;;27.83;49.84;99298.88;1658081;85;21491;-80
2021/07/03 06:52:56;;;;;;;8.73;8.03;;;;;;;28.03;49.37;99305.02;1653529;85;21507;-79
2021/07/03 06:55:22;;;;;;;11.93;8.93;;;;;;;28.33;48.07;99300.87;1646763;85;21105;-81
2021/07/03 06:57:48;;;;;;;9.68;8.93;;;;;;;28.49;47.45;99299.73;1631321;86;20995;-80
2021/07/03 07:00:15;;;;;;;9.80;8.95;;;;;;;28.63;47.56;99298.13;1640450;86;21499;-78
2021/07/03 07:02:41;;;;;;;9.63;8.93;;;;;;;28.74;47.58;99296.58;1665074;84;22162;-78
2021/07/03 07:05:10;;;;;;;9.58;8.43;;;;;;;28.87;47.04;99295.50;1669475;84;21157;-77
2021/07/03 07:07:36;;;;;;;9.05;8.28;;;;;;;28.89;47.76;99297.33;1660951;84;21142;-78
2021/07/03 07:10:04;;;;;;;12.53;9.38;;;;;;;29.00;46.98;99296.35;1667687;84;21514;-81
2021/07/03 07:12:31;;;;;;;8.70;7.92;;;;;;;29.05;46.48;99298.10;1657654;84;21088;-79
2021/07/03 07:14:58;;;;;;;9.63;8.83;;;;;;;28.95;46.89;99297.13;1610771;88;21040;-78
2021/07/03 07:17:24;;;;;;;9.98;9.00;;;;;;;28.89;46.83;99304.19;1635561;86;21076;-80
2021/07/03 07:19:52;;;;;;;9.28;8.35;;;;;;;28.93;47.00;99305.69;1624649;87;21054;-82
2021/07/03 07:22:19;;;;;;;8.93;8.10;;;;;;;29.07;46.51;99304.84;1618938;86;21479;-80
2021/07/03 07:24:46;;;;;;;8.20;7.40;;;;;;;29.18;46.10;99308.00;1610221;87;21034;-83
2021/07/03 07:27:12;;;;;;;8.33;7.62;;;;;;;29.13;45.99;99312.33;1597408;87;21030;-80
2021/07/03 07:29:38;;;;;;;11.28;9.48;;;;;;;28.94;46.33;99310.05;1624834;87;21080;-80
2021/07/03 07:32:05;;;;;;;8.88;8.15;;;;;;;28.86;45.83;99315.84;1620536;87;21037;-79
2021/07/03 07:34:31;;;;;;;8.95;8.05;;;;;;;28.70;46.41;99307.98;1623405;87;21519;-80
2021/07/03 07:36:59;;;;;;;7.83;7.25;;;;;;;28.51;46.48;99317.44;1614397;87;21120;-78
2021/07/03 07:39:27;;;;;;;7.10;6.65;;;;;;;28.57;46.85;99315.34;1632181;88;21065;-80
2021/07/03 07:41:53;;;;;;;8.30;7.35;;;;;;;28.75;45.76;99310.54;1607969;85;21066;-81
2021/07/03 07:44:24;;;;;;;8.15;7.25;;;;;;;28.85;45.46;99314.23;1658450;85;21690;-79
2021/07/03 07:46:50;;;;;;;7.75;6.97;;;;;;;27.76;45.36;99140.05;1687768;83;21146;-79
2021/07/03 07:49:22;;;;;;;6.92;6.35;;;;;;;28.87;45.06;99317.44;1688812;83;21546;-79
2021/07/03 07:51:48;;;;;;;8.50;6.30;;;;;;;28.78;45.38;99324.92;1678179;83;21093;-77
2021/07/03 07:54:17;;;;;;;6.37;6.00;;;;;;;28.60;45.47;99316.05;1689535;85;21189;-79
2021/07/03 07:56:43;;;;;;;6.47;5.90;;;;;;;28.46;45.73;99314.92;1677016;84;21106;-82
2021/07/03 07:59:08;;;;;;;5.80;5.17;;;;;;;28.35;46.10;99313.13;1685137;83;21276;-81
2021/07/03 08:01:36;;;;;;;6.53;5.95;;;;;;;28.37;46.19;99316.91;1681861;83;21060;-82
2021/07/03 08:04:03;;;;;;;5.25;4.85;;;;;;;28.44;45.97;99315.00;1683225;83;21073;-81
2021/07/03 08:06:29;;;;;;;7.28;5.37;;;;;;;28.44;45.59;99311.69;1689432;83;21442;-81
2021/07/03 08:08:55;;;;;;;5.97;4.80;;;;;;;28.29;45.27;99310.90;1688139;83;21086;-80
2021/07/03 08:11:23;;;;;;;5.90;4.15;;;;;;;28.05;45.68;99305.48;1683182;83;21041;-83
2021/07/03 08:13:50;;;;;;;3.37;3.17;;;;;;;27.97;45.46;99306.32;1681456;85;21825;-80
2021/07/03 08:16:16;;;;;;;5.15;4.75;;;;;;;28.02;44.97;99312.19;1684618;83;21112;-80
2021/07/03 08:18:44;;;;;;;4.33;4.03;;;;;;;27.91;45.20;99308.44;1689085;85;21032;-82
2021/07/03 08:21:10;;;;;;;8.35;4.00;;;;;;;27.78;45.29;99303.96;1682882;83;21130;-81
2021/07/03 08:23:38;;;;;;;6.72;3.50;;;;;;;27.65;45.25;99311.28;1688385;83;21597;-82
2021/07/03 08:26:04;;;;;;;5.67;4.10;;;;;;;27.60;44.99;99307.92;1688596;85;21001;-80
2021/07/03 08:28:31;;;;;;;3.17;2.87;;;;;;;27.58;45.23;99309.61;1692091;83;21076;-82
2021/07/03 08:30:58;;;;;;;3.27;3.05;;;;;;;27.62;44.93;99311.12;1695123;79;20974;-83
2021/07/03 08:33:25;;;;;;;3.92;3.62;;;;;;;27.72;44.56;99312.92;1690172;83;20975;-82
2021/07/03 08:35:54;;;;;;;6.65;4.15;;;;;;;27.87;45.27;99312.15;1690333;85;22292;-83
2021/07/03 08:38:19;;;;;;;3.65;3.35;;;;;;;27.86;44.87;99313.27;1688254;83;21337;-83
2021/07/03 08:40:48;;;;;;;4.42;2.83;;;;;;;27.81;43.63;99314.84;1686545;83;21180;-82
2021/07/03 08:43:15;;;;;;;5.05;3.15;;;;;;;27.70;44.17;99309.71;1684472;83;21053;-83
2021/07/03 08:45:41;;;;;;;3.27;2.95;;;;;;;27.71;44.23;99314.07;1693256;82;21060;-82
2021/07/03 08:48:07;;;;;;;3.00;2.80;;;;;;;27.74;44.10;99316.13;1691297;84;21052;-83
2021/07/03 08:50:36;;;;;;;3.33;2.87;;;;;;;27.86;44.11;99317.38;1686216;83;22165;-83
2021/07/03 08:53:08;;;;;;;3.20;3.00;;;;;;;27.93;43.37;99308.94;1690186;83;21013;-82
2021/07/03 08:55:37;;;;;;;3.02;2.67;;;;;;;27.91;42.83;99313.13;1688450;83;21607;-83
2021/07/03 08:58:06;;;;;;;3.00;2.30;;;;;;;27.79;42.76;99308.89;1703567;83;21025;-83
2021/07/03 09:00:40;;;;;;;2.33;1.90;;;;;;;27.66;42.72;99312.88;1703076;83;21586;-82
2021/07/03 09:03:18;;;;;;;;;;;;;;;27.63;42.79;99301.20;1708844;83;21531;-82
2021/07/03 09:06:00;;;;;;;3.60;1.57;;;;;;;27.66;42.84;99301.13;1698513;83;20989;-82
2021/07/03 09:08:29;;;;;;;5.17;3.10;;;;;;;27.63;43.05;99304.51;1702354;83;21546;-81
2021/07/03 09:11:10;;;;;;;3.50;3.20;;;;;;;27.74;43.58;99292.86;1704513;83;21044;-80
2021/07/03 09:13:40;;;;;;;3.65;3.35;;;;;;;27.87;43.70;99302.56;1697683;83;21062;-82
2021/07/03 09:16:06;;;;;;;4.05;3.83;;;;;;;27.99;43.98;99300.52;1680414;83;21049;-82
2021/07/03 09:18:34;;;;;;;4.03;2.50;;;;;;;28.07;44.49;99296.95;1701413;83;21420;-82
2021/07/03 09:21:06;;;;;;;3.17;2.12;;;;;;;28.05;41.27;99297.81;1698309;83;21024;-82
2021/07/03 09:23:38;;;;;;;6.20;5.70;;;;;;;27.89;42.28;99298.95;1684627;83;21082;-82
2021/07/03 09:26:08;;;;;;;7.78;7.08;;;;;;;27.75;46.29;99290.38;1667498;85;21511;-82
2021/07/03 09:28:39;;;;;;;6.42;5.62;;;;;;;27.62;47.63;99291.39;1660897;85;22222;-83
2021/07/03 09:31:10;;;;;;;5.83;5.30;;;;;;;27.53;48.08;99293.36;1665003;85;21558;-81
2021/07/03 09:33:50;;;;;;;5.70;5.12;;;;;;;27.51;47.87;99296.41;1666693;84;21116;-81
2021/07/03 09:36:31;;;;;;;4.92;4.60;;;;;;;27.48;46.86;99305.84;1664332;85;21054;-80
2021/07/03 09:38:59;;;;;;;8.88;6.92;;;;;;;27.47;46.67;99297.41;1663661;85;21013;-81
2021/07/03 09:41:37;;;;;;;6.47;6.00;;;;;;;27.40;47.63;99307.47;1664394;85;21598;-80
2021/07/03 09:44:11;;;;;;;6.12;5.60;;;;;;;27.30;47.62;99304.52;1664599;85;21109;-81
2021/07/03 09:46:49;;;;;;;7.40;5.53;;;;;;;27.19;47.23;99305.96;1666352;85;21043;-81
2021/07/03 09:49:25;;;;;;;9.30;6.05;;;;;;;27.10;47.73;99304.59;1658773;85;21054;-78
2021/07/03 09:51:57;;;;;;;6.45;5.95;;;;;;;27.03;48.88;99307.05;1655360;85;21077;-81
2021/07/03 09:54:27;;;;;;;6.78;6.28;;;;;;;26.93;49.24;99312.83;1657796;85;21042;-81
2021/07/03 09:57:00;;;;;;;5.35;4.80;;;;;;;26.84;49.89;99321.02;1655475;86;21073;-81
2021/07/03 09:59:35;;;;;;;4.37;4.05;;;;;;;26.71;49.58;99309.69;1663881;85;21029;-84
2021/07/03 10:02:04;;;;;;;3.83;3.42;;;;;;;26.54;49.80;99307.17;1684265;83;21113;-86
2021/07/03 10:04:30;;;;;;;3.85;2.42;;;;;;;26.44;49.24;99307.47;1660162;85;21018;-84
2021/07/03 10:07:04;;;;;;;1.85;1.75;;;;;;;26.26;48.10;99314.84;1693671;84;21084;-84
2021/07/03 10:09:41;;;;;;;2.87;2.20;;;;;;;26.01;48.10;99301.34;1690763;83;21085;-83
2021/07/03 10:12:12;;;;;;;2.25;1.82;;;;;;;25.54;49.12;99250.48;1698701;84;21054;-89
2021/07/03 10:14:46;;;;;;;3.47;1.65;;;;;;;25.72;48.57;99297.77;1684449;84;21091;-86
2021/07/03 10:17:26;;;;;;;2.58;1.52;;;;;;;25.64;48.80;99300.14;1687780;84;21634;-86
2021/07/03 10:19:54;;;;;;;3.83;1.35;;;;;;;25.63;48.79;99294.42;1699558;84;21623;-86
2021/07/03 10:22:28;;;;;;;1.17;1.17;;;;;;;25.62;48.31;99298.28;1690336;84;21030;-85
2021/07/03 10:25:01;;;;;;;2.05;1.47;;;;;;;25.63;48.54;99286.80;1684132;83;21476;-87
2021/07/03 10:27:31;;;;;;;3.80;1.50;;;;;;;25.63;49.09;99292.26;1683865;83;21104;-85
2021/07/03 10:30:01;;;;;;;1.05;0.65;;;;;;;25.60;47.94;99286.88;1693926;84;21149;-86
2021/07/03 10:32:33;;;;;;;1.52;1.10;;;;;;;25.56;48.00;99286.44;1688144;83;21042;-86
2021/07/03 10:35:18;;;;;;;3.58;1.00;;;;;;;25.55;48.14;99281.55;1691651;83;21113;-86
2021/07/03 10:37:45;;;;;;;0.78;0.68;;;;;;;25.61;48.09;99283.02;1664643;85;21928;-85
2021/07/03 10:40:24;;;;;;;2.10;1.32;;;;;;;25.69;48.44;99290.20;1659697;85;21093;-95
2021/07/03 10:42:52;;;;;;;1.60;1.10;;;;;;;25.78;48.67;99291.84;1658207;85;21147;-86
2021/07/03 10:45:23;;;;;;;1.90;1.50;;;;;;;25.86;48.96;99288.09;1666350;85;21073;-88
2021/07/03 10:47:51;;;;;;;2.17;1.75;;;;;;;25.89;49.82;99301.92;1663617;85;21122;-88
2021/07/03 10:50:28;;;;;;;2.35;1.75;;;;;;;25.96;50.16;99302.30;1664227;86;21103;-86
2021/07/03 10:52:56;;;;;;;1.80;1.47;;;;;;;26.01;50.35;99299.97;1667978;85;20999;-84
2021/07/03 10:55:32;;;;;;;2.30;1.75;;;;;;;26.10;50.06;99295.34;1663315;82;21005;-86
2021/07/03 10:58:02;;;;;;;;;;;;;;;26.20;49.63;99299.70;1628604;86;21068;-84
2021/07/03 11:00:28;;;;;;;2.98;2.55;;;;;;;26.27;50.35;99300.61;1632591;86;20199;-85
2021/07/03 11:02:56;;;;;;;3.22;2.47;;;;;;;26.12;50.85;99305.39;1659127;85;21206;-83
2021/07/03 11:05:33;;;;;;;3.22;2.90;;;;;;;25.97;50.84;99293.54;1634785;86;21121;-86
2021/07/03 11:08:10;;;;;;;5.28;2.45;;;;;;;25.86;51.11;99282.63;1661499;85;21111;-84
2021/07/03 11:10:42;;;;;;;2.98;2.75;;;;;;;25.86;51.90;99288.89;1660569;85;21037;-83
2021/07/03 11:13:20;;;;;;;2.87;2.65;;;;;;;25.92;51.76;99280.03;1666197;85;21093;-85
2021/07/03 11:15:47;;;;;;;5.40;4.78;;;;;;;25.97;51.66;99277.95;1639546;87;21072;-83
2021/07/03 11:18:13;;;;;;;4.90;4.50;;;;;;;26.00;51.04;99277.91;1665461;85;21200;-83
2021/07/03 11:20:40;;;;;;;3.12;2.83;;;;;;;26.09;49.56;99290.20;1644429;87;21034;-85
2021/07/03 11:23:10;;;;;;;4.00;2.70;;;;;;;26.06;49.20;99281.30;1623213;86;21541;-85
2021/07/03 11:25:43;;;;;;;2.98;2.75;;;;;;;26.09;49.05;99286.92;1632874;86;21069;-86
2021/07/03 11:28:20;;;;;;;2.45;2.25;;;;;;;26.21;49.25;99287.09;1635234;86;21061;-85
2021/07/03 11:30:48;;;;;;;;;;;;;;;26.35;49.20;99287.52;1628211;86;21035;-84
2021/07/03 11:33:15;;;;;;;5.60;3.02;;;;;;;26.43;49.30;99273.09;1640998;86;20475;-84
2021/07/03 11:35:48;;;;;;;3.75;3.45;;;;;;;26.48;49.04;99260.61;1612879;87;21164;-85
2021/07/03 11:38:21;;;;;;;5.12;3.60;;;;;;;26.60;48.49;99255.36;1606520;89;21081;-83
2021/07/03 11:40:52;;;;;;;4.60;3.45;;;;;;;26.75;48.60;99243.70;1613352;87;21070;-83
2021/07/03 11:43:21;;;;;;;4.50;4.20;;;;;;;26.86;48.27;99244.16;1598368;89;21101;-82